createdAt,value
2022-11-24T00:00:55.152Z,4.07
2022-11-24T00:03:21.650Z,1.10
2022-11-24T00:05:48.700Z,3.50
2022-11-24T00:08:15.142Z,3.50
2022-11-24T00:10:41.587Z,4.07
2022-11-24T00:13:08.001Z,2.50
2022-11-24T00:15:34.456Z,1.60
2022-11-24T00:18:00.883Z,1.83
2022-11-24T00:20:27.318Z,3.17
2022-11-24T00:22:53.890Z,2.33
2022-11-24T00:25:20.325Z,3.70
2022-11-24T00:27:46.774Z,2.70
2022-11-24T00:30:13.502Z,2.58
2022-11-24T00:32:39.922Z,1.95
2022-11-24T00:35:07.640Z,2.92
2022-11-24T00:37:34.087Z,1.98
2022-11-24T00:40:00.564Z,2.45
2022-11-24T00:42:26.973Z,1.98
2022-11-24T00:44:53.400Z,2.80
2022-11-24T00:47:19.850Z,3.85
2022-11-24T00:49:46.289Z,2.50
2022-11-24T00:52:12.737Z,4.00
2022-11-24T00:54:39.144Z,2.83
2022-11-24T00:57:05.589Z,2.97
2022-11-24T00:59:32.585Z,4.47
2022-11-24T01:01:59.143Z,2.85
2022-11-24T01:04:25.699Z,2.63
2022-11-24T01:06:52.121Z,1.55
2022-11-24T01:09:18.598Z,1.63
2022-11-24T01:12:04.127Z,1.08
2022-11-24T01:14:33.240Z,1.77
2022-11-24T01:17:00.000Z,3.78
2022-11-24T01:19:26.491Z,2.65
2022-11-24T01:21:53.114Z,3.40
2022-11-24T01:24:19.814Z,3.38
2022-11-24T01:26:46.261Z,2.63
2022-11-24T01:29:12.955Z,4.78
2022-11-24T01:31:39.728Z,2.78
2022-11-24T01:34:06.332Z,3.55
2022-11-24T01:36:33.284Z,4.40
2022-11-24T01:38:59.817Z,3.75
2022-11-24T01:41:26.831Z,3.45
2022-11-24T01:43:55.260Z,2.75
2022-11-24T01:46:47.321Z,2.08
2022-11-24T01:49:19.724Z,2.83
2022-11-24T01:51:55.168Z,3.00
2022-11-24T01:54:45.227Z,3.30
2022-11-24T01:57:20.303Z,1.13
2022-11-24T01:59:50.706Z,1.63
2022-11-24T02:02:17.728Z,3.53
2022-11-24T02:04:45.279Z,2.83
2022-11-24T02:07:12.806Z,1.92
2022-11-24T02:09:49.045Z,3.83
2022-11-24T02:12:15.469Z,1.90
2022-11-24T02:14:43.496Z,2.90
2022-11-24T02:17:10.264Z,2.53
2022-11-24T02:19:39.382Z,1.67
2022-11-24T02:22:11.013Z,1.70
2022-11-24T02:24:37.443Z,2.95
2022-11-24T02:27:04.064Z,1.67
2022-11-24T02:29:30.597Z,3.20
2022-11-24T02:32:03.107Z,3.22
2022-11-24T02:34:29.539Z,3.17
2022-11-24T02:36:56.002Z,3.60
2022-11-24T02:39:22.464Z,2.33
2022-11-24T02:42:00.543Z,2.65
2022-11-24T02:44:32.553Z,3.45
2022-11-24T02:47:07.207Z,1.98
2022-11-24T02:49:33.835Z,2.47
2022-11-24T02:52:00.710Z,2.50
2022-11-24T02:54:27.317Z,1.60
2022-11-24T02:56:53.755Z,2.58
2022-11-24T02:59:20.514Z,3.38
2022-11-24T03:01:47.009Z,3.65
2022-11-24T03:04:13.612Z,2.53
2022-11-24T03:06:40.182Z,1.67
2022-11-24T03:09:06.950Z,1.77
2022-11-24T03:11:33.399Z,3.72
2022-11-24T03:13:59.816Z,0.98
2022-11-24T03:16:26.286Z,4.25
2022-11-24T03:18:53.533Z,3.03
2022-11-24T03:21:20.337Z,3.40
2022-11-24T03:23:46.875Z,3.30
2022-11-24T03:26:17.125Z,1.92
2022-11-24T03:28:44.573Z,1.40
2022-11-24T03:31:11.559Z,3.00
2022-11-24T03:33:38.284Z,2.45
2022-11-24T03:36:06.346Z,1.50
2022-11-24T03:38:33.173Z,2.05
2022-11-24T03:40:59.632Z,2.95
2022-11-24T03:43:26.073Z,2.58
2022-11-24T03:45:52.508Z,1.35
2022-11-24T03:48:21.191Z,4.50
2022-11-24T03:50:56.354Z,2.30
2022-11-24T03:53:24.161Z,3.35
2022-11-24T03:55:50.632Z,2.08
2022-11-24T03:58:17.290Z,1.05
2022-11-24T04:00:43.709Z,1.67
2022-11-24T04:03:10.181Z,3.97
2022-11-24T04:05:36.967Z,1.52
2022-11-24T04:08:05.288Z,1.75
2022-11-24T04:10:35.839Z,3.10
2022-11-24T04:13:03.866Z,3.70
2022-11-24T04:15:30.336Z,4.22
2022-11-24T04:17:58.034Z,3.13
2022-11-24T04:20:24.620Z,3.95
2022-11-24T04:22:51.758Z,5.13
2022-11-24T04:25:18.677Z,4.20
2022-11-24T04:27:45.656Z,3.25
2022-11-24T04:30:12.330Z,3.10
2022-11-24T04:32:38.752Z,4.18
2022-11-24T04:35:05.544Z,3.25
2022-11-24T04:37:32.028Z,2.03
2022-11-24T04:39:58.464Z,2.35
2022-11-24T04:42:24.960Z,3.38
2022-11-24T04:44:51.379Z,2.20
2022-11-24T04:47:24.348Z,4.18
2022-11-24T04:49:51.339Z,1.73
2022-11-24T04:52:19.587Z,2.00
2022-11-24T04:54:47.141Z,3.75
2022-11-24T04:57:17.711Z,3.88
2022-11-24T04:59:44.333Z,3.20
2022-11-24T05:02:11.773Z,4.55
2022-11-24T05:04:38.517Z,2.92
2022-11-24T05:07:05.452Z,4.30
2022-11-24T05:09:48.231Z,3.40
2022-11-24T05:12:18.331Z,2.97
2022-11-24T05:14:45.288Z,3.00
2022-11-24T05:17:11.718Z,3.30
2022-11-24T05:19:38.195Z,2.45
2022-11-24T05:22:04.617Z,3.95
2022-11-24T05:24:31.078Z,2.42
2022-11-24T05:26:57.546Z,1.35
2022-11-24T05:29:24.020Z,3.70
2022-11-24T05:31:50.473Z,3.45
2022-11-24T05:34:18.257Z,3.33
2022-11-24T05:36:54.069Z,4.55
2022-11-24T05:39:21.323Z,2.97
2022-11-24T05:41:47.808Z,1.50
2022-11-24T05:44:14.302Z,2.60
2022-11-24T05:46:40.777Z,1.65
2022-11-24T05:49:07.250Z,4.22
2022-11-24T05:51:33.754Z,3.53
2022-11-24T05:54:00.170Z,4.07
2022-11-24T05:56:26.624Z,3.58
2022-11-24T05:58:53.064Z,5.53
2022-11-24T06:01:19.559Z,3.38
2022-11-24T06:03:45.971Z,4.00
2022-11-24T06:06:12.450Z,1.58
2022-11-24T06:08:38.897Z,4.00
2022-11-24T06:11:20.473Z,5.05
2022-11-24T06:13:50.922Z,4.30
2022-11-24T06:16:17.710Z,4.03
2022-11-24T06:18:44.416Z,3.47
2022-11-24T06:21:11.991Z,4.07
2022-11-24T06:23:39.210Z,3.58
2022-11-24T06:26:06.302Z,4.10
2022-11-24T06:28:33.011Z,2.17
2022-11-24T06:31:03.914Z,2.83
2022-11-24T06:33:35.002Z,3.78
2022-11-24T06:36:07.960Z,4.65
2022-11-24T06:38:36.093Z,5.68
2022-11-24T06:41:13.204Z,2.78
2022-11-24T06:43:40.108Z,4.38
2022-11-24T06:46:06.910Z,2.85
2022-11-24T06:48:33.516Z,4.20
2022-11-24T06:51:01.266Z,2.85
2022-11-24T06:53:33.609Z,2.88
2022-11-24T06:56:01.674Z,2.00
2022-11-24T06:58:28.286Z,4.93
2022-11-24T07:00:54.821Z,2.42
2022-11-24T07:03:21.377Z,1.25
2022-11-24T07:05:47.980Z,4.38
2022-11-24T07:08:17.751Z,3.70
2022-11-24T07:10:44.907Z,2.97
2022-11-24T07:13:11.469Z,1.52
2022-11-24T07:15:37.915Z,2.63
2022-11-24T07:18:04.706Z,2.63
2022-11-24T07:20:31.218Z,2.97
2022-11-24T07:22:58.490Z,1.33
2022-11-24T07:25:28.406Z,2.97
2022-11-24T07:27:59.090Z,3.70
2022-11-24T07:30:26.694Z,1.85
2022-11-24T07:32:59.194Z,1.67
2022-11-24T07:35:25.669Z,2.78
2022-11-24T07:37:58.255Z,3.95
2022-11-24T07:40:26.633Z,4.25
2022-11-24T07:42:53.934Z,3.95
2022-11-24T07:45:20.856Z,2.47
2022-11-24T07:47:47.339Z,3.90
2022-11-24T07:50:13.928Z,2.03
2022-11-24T07:52:40.412Z,3.25
2022-11-24T07:55:07.890Z,3.58
2022-11-24T07:57:35.017Z,0.82
2022-11-24T08:00:02.093Z,2.20
2022-11-24T08:02:28.558Z,1.63
2022-11-24T08:04:55.126Z,1.02
2022-11-24T08:07:21.688Z,2.33
2022-11-24T08:09:50.380Z,0.77
2022-11-24T08:12:21.470Z,1.77
2022-11-24T08:14:50.327Z,2.67
2022-11-24T08:17:20.181Z,1.77
2022-11-24T08:19:46.909Z,1.52
2022-11-24T08:22:13.404Z,1.58
2022-11-24T08:24:46.084Z,1.45
2022-11-24T08:27:13.889Z,1.58
2022-11-24T08:29:40.338Z,2.25
2022-11-24T08:32:07.011Z,1.80
2022-11-24T08:34:33.938Z,0.88
2022-11-24T08:37:00.730Z,0.85
2022-11-24T08:39:27.176Z,1.25
2022-11-24T08:41:53.641Z,1.75
2022-11-24T08:44:20.161Z,1.90
2022-11-24T08:46:46.749Z,2.00
2022-11-24T08:49:15.018Z,1.30
2022-11-24T08:51:42.137Z,1.05
2022-11-24T08:54:13.496Z,1.50
2022-11-24T08:56:40.208Z,1.30
2022-11-24T08:59:07.202Z,1.75
2022-11-24T09:01:33.848Z,0.95
2022-11-24T09:04:00.550Z,1.58
2022-11-24T09:06:30.697Z,1.77
2022-11-24T09:08:58.397Z,1.73
2022-11-24T09:11:27.094Z,2.22
2022-11-24T09:13:55.104Z,1.48
2022-11-24T09:16:25.780Z,1.80
2022-11-24T09:18:56.263Z,1.23
2022-11-24T09:21:23.871Z,1.00
2022-11-24T09:23:52.027Z,2.00
2022-11-24T09:26:24.504Z,2.08
2022-11-24T09:28:54.501Z,1.80
2022-11-24T09:31:24.141Z,1.35
2022-11-24T09:33:52.325Z,1.48
2022-11-24T09:36:19.621Z,1.77
2022-11-24T09:38:46.531Z,1.20
2022-11-24T09:41:30.932Z,2.55
2022-11-24T09:44:22.482Z,2.88
2022-11-24T09:47:12.744Z,2.42
2022-11-24T09:50:06.479Z,3.33
2022-11-24T09:52:35.851Z,1.45
2022-11-24T09:55:05.438Z,1.13
2022-11-24T09:57:37.719Z,2.35
2022-11-24T10:00:12.373Z,2.35
2022-11-24T10:02:39.328Z,3.10
2022-11-24T10:05:06.956Z,3.85
2022-11-24T10:07:42.761Z,1.45
2022-11-24T10:10:25.106Z,3.17
2022-11-24T10:13:13.147Z,3.60
2022-11-24T10:15:58.913Z,3.53
2022-11-24T10:18:55.685Z,3.55
2022-11-24T10:21:56.303Z,1.98
2022-11-24T10:24:35.653Z,1.88
2022-11-24T10:27:10.752Z,3.28
2022-11-24T10:29:42.272Z,1.42
2022-11-24T10:32:19.235Z,2.88
2022-11-24T10:34:49.923Z,1.20
2022-11-24T10:37:25.494Z,2.42
2022-11-24T10:40:05.626Z,3.17
2022-11-24T10:42:36.891Z,2.38
2022-11-24T10:45:06.274Z,2.90
2022-11-24T10:47:32.678Z,2.63
2022-11-24T10:50:14.132Z,2.53
2022-11-24T10:52:44.755Z,2.05
2022-11-24T10:55:11.256Z,1.30
2022-11-24T10:57:39.968Z,2.47
2022-11-24T11:00:26.674Z,4.22
2022-11-24T11:03:17.660Z,3.75
2022-11-24T11:05:50.828Z,2.75
2022-11-24T11:08:21.801Z,2.42
2022-11-24T11:11:14.012Z,3.92
2022-11-24T11:14:07.258Z,4.15
2022-11-24T11:16:33.910Z,3.03
2022-11-24T11:19:15.648Z,1.63
2022-11-24T11:22:00.343Z,2.53
2022-11-24T11:24:28.549Z,2.78
2022-11-24T11:27:04.524Z,3.40
2022-11-24T11:35:12.466Z,3.70
2022-11-24T11:37:39.044Z,1.90
2022-11-24T11:40:16.003Z,1.77
2022-11-24T11:43:02.314Z,1.88
2022-11-24T11:45:35.433Z,2.33
2022-11-24T11:48:01.910Z,3.97
2022-11-24T11:51:21.716Z,3.42
2022-11-24T11:53:46.493Z,3.35
2022-11-24T11:56:35.218Z,3.03
2022-11-24T11:59:24.051Z,2.67
2022-11-24T12:02:12.436Z,2.25
2022-11-24T12:05:00.998Z,3.30
2022-11-24T12:07:42.688Z,4.25
2022-11-24T12:10:24.424Z,1.50
2022-11-24T12:13:18.254Z,4.80
2022-11-24T12:15:54.699Z,9.18
2022-11-24T12:21:29.902Z,2.40
2022-11-24T12:24:05.047Z,3.00
2022-11-24T12:26:40.702Z,4.57
2022-11-24T12:29:31.330Z,6.38
2022-11-24T12:32:10.105Z,3.70
2022-11-24T12:34:42.517Z,5.88
2022-11-24T12:37:24.240Z,2.53
2022-11-24T12:40:01.941Z,6.60
2022-11-24T12:42:49.390Z,4.25
2022-11-24T12:45:22.244Z,3.80
2022-11-24T12:47:48.663Z,5.07
2022-11-24T12:50:20.966Z,3.33
2022-11-24T12:53:00.615Z,3.88
2022-11-24T12:55:28.784Z,2.83
2022-11-24T12:58:11.981Z,2.65
2022-11-24T13:01:00.211Z,1.38
2022-11-24T13:03:50.427Z,2.97
2022-11-24T13:06:27.969Z,2.67
2022-11-24T13:08:54.486Z,0.70
2022-11-24T13:11:20.858Z,3.53
2022-11-24T13:13:56.809Z,3.85
2022-11-24T13:16:53.521Z,1.90
2022-11-24T13:19:17.167Z,4.10
2022-11-24T13:21:45.384Z,2.88
2022-11-24T13:24:18.954Z,3.45
2022-11-24T13:26:48.496Z,3.30
2022-11-24T13:29:27.169Z,2.53
2022-11-24T13:32:14.644Z,2.85
2022-11-24T13:34:45.476Z,4.43
2022-11-24T13:37:35.508Z,3.50
2022-11-24T13:40:31.462Z,1.23
2022-11-24T13:42:57.883Z,3.73
2022-11-24T13:45:39.940Z,3.03
2022-11-24T13:48:18.711Z,1.73
2022-11-24T13:50:51.757Z,1.30
2022-11-24T13:53:18.368Z,1.45
2022-11-24T13:55:55.075Z,2.83
2022-11-24T13:58:35.998Z,3.08
2022-11-24T14:01:14.634Z,2.95
2022-11-24T14:04:28.759Z,2.42
2022-11-24T14:06:43.418Z,1.73
2022-11-24T14:09:31.996Z,1.38
2022-11-24T14:12:03.966Z,3.15
2022-11-24T14:14:30.417Z,3.05
2022-11-24T14:17:06.419Z,3.50
2022-11-24T14:19:32.898Z,3.17
2022-11-24T14:21:59.421Z,3.28
2022-11-24T14:24:33.445Z,3.10
2022-11-24T14:27:01.979Z,3.17
2022-11-24T14:29:32.976Z,2.80
2022-11-24T14:32:04.820Z,3.10
2022-11-24T14:34:35.433Z,1.95
2022-11-24T14:37:02.325Z,3.00
2022-11-24T14:39:30.130Z,3.35
2022-11-24T14:42:16.142Z,3.03
2022-11-24T14:45:03.832Z,4.03
2022-11-24T14:47:38.795Z,1.45
2022-11-24T14:50:10.652Z,1.92
2022-11-24T14:52:49.937Z,1.00
2022-11-24T14:55:30.786Z,3.30
2022-11-24T14:57:58.519Z,2.28
2022-11-24T15:00:24.898Z,3.63
2022-11-24T15:03:07.414Z,0.93
2022-11-24T15:05:55.407Z,2.58
2022-11-24T15:08:23.855Z,3.40
2022-11-24T15:10:57.490Z,3.10
2022-11-24T15:13:25.243Z,4.70
2022-11-24T15:16:03.272Z,3.50
2022-11-24T15:18:30.041Z,3.72
2022-11-24T15:20:57.012Z,5.15
2022-11-24T15:23:27.971Z,3.50
2022-11-24T15:25:56.597Z,3.95
2022-11-24T15:28:27.010Z,3.55
2022-11-24T15:30:54.900Z,3.92
2022-11-24T15:33:22.640Z,3.47
2022-11-24T15:35:49.419Z,3.97
2022-11-24T15:38:16.360Z,3.78
2022-11-24T15:40:46.394Z,4.22
2022-11-24T15:43:23.001Z,5.07
2022-11-24T15:45:49.543Z,4.13
2022-11-24T15:48:18.220Z,4.47
2022-11-24T15:50:46.504Z,4.43
2022-11-24T15:53:21.387Z,4.03
2022-11-24T15:55:48.717Z,3.95
2022-11-24T15:58:15.537Z,3.70
2022-11-24T16:00:43.406Z,3.83
2022-11-24T16:03:44.598Z,3.72
2022-11-24T16:05:57.303Z,3.83
2022-11-24T16:08:23.794Z,3.65
2022-11-24T16:10:51.231Z,4.20
2022-11-24T16:13:17.727Z,4.50
2022-11-24T16:15:45.735Z,4.78
2022-11-24T16:18:13.897Z,3.88
2022-11-24T16:20:40.462Z,5.78
2022-11-24T16:23:06.996Z,4.22
2022-11-24T16:25:33.448Z,4.30
2022-11-24T16:28:00.019Z,5.82
2022-11-24T16:30:26.560Z,5.60
2022-11-24T16:32:53.081Z,5.10
2022-11-24T16:35:20.067Z,5.72
2022-11-24T16:37:46.710Z,5.30
2022-11-24T16:40:13.422Z,5.05
2022-11-24T16:42:39.876Z,5.60
2022-11-24T16:45:06.960Z,6.00
2022-11-24T16:47:39.373Z,4.95
2022-11-24T16:50:07.326Z,5.28
2022-11-24T16:52:33.840Z,4.72
2022-11-24T16:55:00.402Z,5.43
2022-11-24T16:57:26.857Z,5.70
2022-11-24T16:59:53.293Z,5.20
2022-11-24T17:02:19.881Z,6.57
2022-11-24T17:04:46.396Z,5.07
2022-11-24T17:07:14.105Z,5.03
2022-11-24T17:09:41.015Z,4.82
2022-11-24T17:12:07.778Z,5.45
2022-11-24T17:14:34.506Z,5.03
2022-11-24T17:17:01.236Z,5.35
2022-11-24T17:19:28.404Z,6.18
2022-11-24T17:21:54.941Z,6.57
2022-11-24T17:24:21.511Z,6.30
2022-11-24T17:26:50.923Z,6.63
2022-11-24T17:29:18.085Z,7.18
2022-11-24T17:31:44.698Z,6.53
2022-11-24T17:34:12.185Z,5.97
2022-11-24T17:36:39.680Z,6.22
2022-11-24T17:39:09.409Z,6.07
2022-11-24T17:41:35.978Z,6.43
2022-11-24T17:44:02.912Z,5.63
2022-11-24T17:46:30.252Z,6.20
2022-11-24T17:48:56.986Z,6.13
2022-11-24T17:51:25.377Z,6.40
2022-11-24T17:53:53.591Z,5.03
2022-11-24T17:56:25.315Z,6.03
2022-11-24T17:58:56.633Z,6.10
2022-11-24T18:01:24.302Z,6.53
2022-11-24T18:03:53.722Z,6.20
2022-11-24T18:06:23.997Z,6.25
2022-11-24T18:08:50.598Z,8.65
2022-11-24T18:11:17.125Z,6.10
2022-11-24T18:14:00.937Z,7.28
2022-11-24T18:16:30.211Z,6.32
2022-11-24T18:19:14.331Z,6.85
2022-11-24T18:21:41.541Z,5.05
2022-11-24T18:24:10.012Z,5.68
2022-11-24T18:26:36.851Z,5.95
2022-11-24T18:29:03.980Z,3.22
2022-11-24T18:31:31.238Z,4.75
2022-11-24T18:33:57.806Z,4.75
2022-11-24T18:36:30.052Z,4.90
2022-11-24T18:38:57.024Z,4.50
2022-11-24T18:41:23.558Z,5.25
2022-11-24T18:43:49.991Z,2.40
2022-11-24T18:46:19.032Z,2.85
2022-11-24T18:48:45.856Z,4.40
2022-11-24T18:51:15.716Z,2.25
2022-11-24T18:53:44.202Z,3.03
2022-11-24T18:56:16.108Z,4.10
2022-11-24T18:58:43.543Z,3.97
2022-11-24T19:01:21.727Z,3.25
2022-11-24T19:03:51.416Z,2.35
2022-11-24T19:06:19.380Z,1.35
2022-11-24T19:08:46.286Z,3.90
2022-11-24T19:11:20.172Z,4.50
2022-11-24T19:13:47.686Z,4.30
2022-11-24T19:16:15.209Z,4.18
2022-11-24T19:18:41.759Z,4.78
2022-11-24T19:21:08.402Z,3.03
2022-11-24T19:23:34.892Z,3.88
2022-11-24T19:26:02.700Z,2.97
2022-11-24T19:28:29.467Z,3.58
2022-11-24T19:31:10.369Z,3.92
2022-11-24T19:33:37.002Z,3.53
2022-11-24T19:36:15.241Z,3.83
2022-11-24T19:38:43.191Z,4.40
2022-11-24T19:41:12.471Z,3.47
2022-11-24T19:43:40.238Z,3.67
2022-11-24T19:46:15.134Z,4.88
2022-11-24T19:48:43.604Z,3.65
2022-11-24T19:51:13.734Z,3.78
2022-11-24T19:53:40.763Z,3.70
2022-11-24T19:56:09.796Z,5.32
2022-11-24T19:58:37.697Z,4.45
2022-11-24T20:01:13.884Z,4.13
2022-11-24T20:03:42.005Z,4.72
2022-11-24T20:06:10.400Z,5.88
2022-11-24T20:08:38.322Z,5.20
2022-11-24T20:11:10.027Z,5.38
2022-11-24T20:13:38.581Z,5.05
2022-11-24T20:16:09.737Z,4.25
2022-11-24T20:18:41.919Z,5.07
2022-11-24T20:21:11.463Z,4.93
2022-11-24T20:23:38.726Z,5.07
2022-11-24T20:26:11.693Z,4.93
2022-11-24T20:28:39.111Z,4.90
2022-11-24T20:31:08.086Z,3.63
2022-11-24T20:33:35.469Z,3.42
2022-11-24T20:36:07.719Z,4.65
2022-11-24T20:38:34.708Z,4.97
2022-11-24T20:41:09.818Z,4.03
2022-11-24T20:43:37.930Z,4.30
2022-11-24T20:46:10.174Z,4.68
2022-11-24T20:48:37.429Z,4.80
2022-11-24T20:51:09.102Z,5.07
2022-11-24T20:53:36.470Z,5.88
2022-11-24T20:56:08.832Z,5.07
2022-11-24T20:58:37.703Z,6.30
2022-11-24T21:01:10.453Z,5.72
2022-11-24T21:03:42.778Z,5.35
2022-11-24T21:06:11.001Z,6.72
2022-11-24T21:08:39.118Z,6.07
2022-11-24T21:11:07.384Z,5.95
2022-11-24T21:13:35.536Z,4.90
2022-11-24T21:16:14.872Z,4.38
2022-11-24T21:18:42.411Z,4.63
2022-11-24T21:21:09.259Z,4.68
2022-11-24T21:23:35.984Z,4.53
2022-11-24T21:26:06.734Z,4.30
2022-11-24T21:28:34.790Z,4.05
2022-11-24T21:31:09.578Z,3.90
2022-11-24T21:33:46.529Z,4.10
2022-11-24T21:36:15.215Z,4.35
2022-11-24T21:38:45.600Z,4.18
2022-11-24T21:41:13.931Z,4.43
2022-11-24T21:43:40.474Z,3.80
2022-11-24T21:46:10.569Z,4.32
2022-11-24T21:48:38.601Z,3.90
2022-11-24T21:51:07.672Z,4.20
2022-11-24T21:53:36.079Z,4.20
2022-11-24T21:56:05.963Z,4.38
2022-11-24T21:58:33.759Z,4.20
2022-11-24T22:01:04.913Z,3.92
2022-11-24T22:03:31.523Z,4.90
2022-11-24T22:05:59.775Z,4.07
2022-11-24T22:08:27.815Z,4.30
2022-11-24T22:10:59.896Z,4.72
2022-11-24T22:13:26.347Z,4.50
2022-11-24T22:16:04.532Z,4.53
2022-11-24T22:18:33.015Z,4.20
2022-11-24T22:20:59.777Z,4.28
2022-11-24T22:23:26.469Z,5.05
2022-11-24T22:25:52.970Z,4.00
2022-11-24T22:28:19.422Z,4.35
2022-11-24T22:30:45.884Z,3.53
2022-11-24T22:33:13.668Z,3.92
2022-11-24T22:35:40.147Z,3.83
2022-11-24T22:38:06.668Z,3.30
2022-11-24T22:40:33.134Z,3.40
2022-11-24T22:42:59.589Z,3.50
2022-11-24T22:45:26.441Z,3.60
2022-11-24T22:47:55.953Z,4.45
2022-11-24T22:50:22.372Z,3.50
2022-11-24T22:52:50.080Z,4.60
2022-11-24T22:55:16.595Z,4.22
2022-11-24T22:57:47.928Z,3.20
2022-11-24T23:00:18.317Z,3.70
2022-11-24T23:02:44.801Z,4.60
2022-11-24T23:05:11.240Z,3.97
2022-11-24T23:07:37.796Z,4.35
2022-11-24T23:10:04.391Z,3.83
2022-11-24T23:12:30.854Z,4.13
2022-11-24T23:14:57.301Z,4.20
2022-11-24T23:17:23.803Z,2.95
2022-11-24T23:19:50.294Z,5.05
2022-11-24T23:22:17.848Z,4.40
2022-11-24T23:24:44.261Z,3.83
2022-11-24T23:27:10.706Z,3.85
2022-11-24T23:29:37.160Z,3.30
2022-11-24T23:32:03.760Z,3.40
2022-11-24T23:34:30.210Z,3.78
2022-11-24T23:36:56.655Z,4.18
2022-11-24T23:39:24.216Z,3.10
2022-11-24T23:41:50.698Z,3.53
2022-11-24T23:44:17.140Z,1.92
2022-11-24T23:46:43.636Z,2.17
2022-11-24T23:49:10.148Z,3.78
2022-11-24T23:51:38.008Z,3.15
2022-11-24T23:54:08.004Z,2.70
2022-11-24T23:56:34.457Z,2.85
2022-11-24T23:59:02.160Z,2.40
